sensor_id;sensor_type;location;lat;lon;timestamp;temperature;humidity
18597;DHT22;9428;50.950;6.912;2023-12-04T00:01:55;2.00;99.90
18597;DHT22;9428;50.950;6.912;2023-12-04T00:04:42;2.00;99.90
18597;DHT22;9428;50.950;6.912;2023-12-04T00:07:29;2.10;99.90
18597;DHT22;9428;50.950;6.912;2023-12-04T00:10:17;2.00;99.90
18597;DHT22;9428;50.950;6.912;2023-12-04T00:13:04;2.00;99.90
18597;DHT22;9428;50.950;6.912;2023-12-04T00:15:53;2.00;99.90
18597;DHT22;9428;50.950;6.912;2023-12-04T00:18:40;2.00;99.90
18597;DHT22;9428;50.950;6.912;2023-12-04T00:21:28;2.10;99.90
18597;DHT22;9428;50.950;6.912;2023-12-04T00:24:15;2.10;99.90
18597;DHT22;9428;50.950;6.912;2023-12-04T00:27:03;2.70;99.90
18597;DHT22;9428;50.950;6.912;2023-12-04T00:29:51;2.10;99.90
18597;DHT22;9428;50.950;6.912;2023-12-04T00:32:39;2.30;99.90
18597;DHT22;9428;50.950;6.912;2023-12-04T00:35:27;2.00;99.90
18597;DHT22;9428;50.950;6.912;2023-12-04T00:38:14;2.10;99.90
18597;DHT22;9428;50.950;6.912;2023-12-04T00:41:01;2.10;99.90
18597;DHT22;9428;50.950;6.912;2023-12-04T00:43:49;2.10;99.90
18597;DHT22;9428;50.950;6.912;2023-12-04T00:46:36;2.10;99.90
18597;DHT22;9428;50.950;6.912;2023-12-04T00:49:25;2.00;99.90
18597;DHT22;9428;50.950;6.912;2023-12-04T00:52:12;2.00;99.90
18597;DHT22;9428;50.950;6.912;2023-12-04T00:54:59;2.00;99.90
18597;DHT22;9428;50.950;6.912;2023-12-04T00:57:47;1.90;99.90
18597;DHT22;9428;50.950;6.912;2023-12-04T01:00:35;2.00;99.90
18597;DHT22;9428;50.950;6.912;2023-12-04T01:03:22;1.90;99.90
18597;DHT22;9428;50.950;6.912;2023-12-04T01:06:21;2.00;99.90
18597;DHT22;9428;50.950;6.912;2023-12-04T01:09:09;2.00;99.90
18597;DHT22;9428;50.950;6.912;2023-12-04T01:11:56;2.50;99.90
18597;DHT22;9428;50.950;6.912;2023-12-04T01:14:44;2.00;99.90
18597;DHT22;9428;50.950;6.912;2023-12-04T01:17:31;2.00;99.90
18597;DHT22;9428;50.950;6.912;2023-12-04T01:20:18;2.00;99.90
18597;DHT22;9428;50.950;6.912;2023-12-04T01:23:07;2.00;99.90
18597;DHT22;9428;50.950;6.912;2023-12-04T01:25:55;2.00;99.90
18597;DHT22;9428;50.950;6.912;2023-12-04T01:28:42;1.90;99.90
18597;DHT22;9428;50.950;6.912;2023-12-04T01:31:29;1.90;99.90
18597;DHT22;9428;50.950;6.912;2023-12-04T01:34:17;2.00;99.90
18597;DHT22;9428;50.950;6.912;2023-12-04T01:37:04;2.00;99.90
18597;DHT22;9428;50.950;6.912;2023-12-04T01:39:53;2.00;99.90
18597;DHT22;9428;50.950;6.912;2023-12-04T01:42:42;2.00;99.90
18597;DHT22;9428;50.950;6.912;2023-12-04T01:45:30;2.00;99.90
18597;DHT22;9428;50.950;6.912;2023-12-04T01:48:17;2.00;99.90
18597;DHT22;9428;50.950;6.912;2023-12-04T01:51:07;2.00;99.90
18597;DHT22;9428;50.950;6.912;2023-12-04T01:53:59;2.00;99.90
18597;DHT22;9428;50.950;6.912;2023-12-04T01:56:49;2.00;99.90
18597;DHT22;9428;50.950;6.912;2023-12-04T01:59:36;2.40;99.90
18597;DHT22;9428;50.950;6.912;2023-12-04T02:02:24;2.00;99.90
18597;DHT22;9428;50.950;6.912;2023-12-04T02:05:11;2.00;99.90
18597;DHT22;9428;50.950;6.912;2023-12-04T02:08:00;2.00;99.90
18597;DHT22;9428;50.950;6.912;2023-12-04T02:10:48;2.00;99.90
18597;DHT22;9428;50.950;6.912;2023-12-04T02:13:36;2.20;99.90
18597;DHT22;9428;50.950;6.912;2023-12-04T02:16:25;2.00;99.90
18597;DHT22;9428;50.950;6.912;2023-12-04T02:19:14;2.20;99.90
18597;DHT22;9428;50.950;6.912;2023-12-04T02:22:02;1.90;99.90
18597;DHT22;9428;50.950;6.912;2023-12-04T02:24:50;1.90;99.90
18597;DHT22;9428;50.950;6.912;2023-12-04T02:27:42;2.00;99.90
18597;DHT22;9428;50.950;6.912;2023-12-04T02:30:33;2.40;99.90
18597;DHT22;9428;50.950;6.912;2023-12-04T02:33:23;2.10;99.90
18597;DHT22;9428;50.950;6.912;2023-12-04T02:36:12;2.00;99.90
18597;DHT22;9428;50.950;6.912;2023-12-04T02:39:00;2.20;99.90
18597;DHT22;9428;50.950;6.912;2023-12-04T02:41:49;2.00;99.90
18597;DHT22;9428;50.950;6.912;2023-12-04T02:44:37;2.00;99.90
18597;DHT22;9428;50.950;6.912;2023-12-04T02:47:25;2.00;99.90
18597;DHT22;9428;50.950;6.912;2023-12-04T02:50:12;2.00;99.90
18597;DHT22;9428;50.950;6.912;2023-12-04T02:53:00;2.00;99.90
18597;DHT22;9428;50.950;6.912;2023-12-04T02:55:47;2.00;99.90
18597;DHT22;9428;50.950;6.912;2023-12-04T02:58:36;2.00;99.90
18597;DHT22;9428;50.950;6.912;2023-12-04T03:01:23;2.00;99.90
18597;DHT22;9428;50.950;6.912;2023-12-04T03:04:10;2.00;99.90
18597;DHT22;9428;50.950;6.912;2023-12-04T03:06:57;2.00;99.90
18597;DHT22;9428;50.950;6.912;2023-12-04T03:09:45;2.00;99.90
18597;DHT22;9428;50.950;6.912;2023-12-04T03:12:32;2.00;99.90
18597;DHT22;9428;50.950;6.912;2023-12-04T03:15:24;2.10;99.90
18597;DHT22;9428;50.950;6.912;2023-12-04T03:18:14;2.00;99.90
18597;DHT22;9428;50.950;6.912;2023-12-04T03:21:02;2.00;99.90
18597;DHT22;9428;50.950;6.912;2023-12-04T03:23:49;2.00;99.90
18597;DHT22;9428;50.950;6.912;2023-12-04T03:26:36;2.00;99.90
18597;DHT22;9428;50.950;6.912;2023-12-04T03:29:24;1.90;99.90
18597;DHT22;9428;50.950;6.912;2023-12-04T03:32:12;1.90;99.90
18597;DHT22;9428;50.950;6.912;2023-12-04T03:35:00;1.90;99.90
18597;DHT22;9428;50.950;6.912;2023-12-04T03:37:47;1.90;99.90
18597;DHT22;9428;50.950;6.912;2023-12-04T03:40:35;2.00;99.90
18597;DHT22;9428;50.950;6.912;2023-12-04T03:43:22;2.00;99.90
18597;DHT22;9428;50.950;6.912;2023-12-04T03:46:10;1.90;99.90
18597;DHT22;9428;50.950;6.912;2023-12-04T03:48:59;2.60;99.90
18597;DHT22;9428;50.950;6.912;2023-12-04T03:51:46;1.90;99.90
18597;DHT22;9428;50.950;6.912;2023-12-04T03:54:34;1.90;99.90
18597;DHT22;9428;50.950;6.912;2023-12-04T03:57:21;1.80;99.90
18597;DHT22;9428;50.950;6.912;2023-12-04T04:00:10;1.90;99.90
18597;DHT22;9428;50.950;6.912;2023-12-04T04:02:57;1.90;99.90
18597;DHT22;9428;50.950;6.912;2023-12-04T04:05:46;1.90;99.90
18597;DHT22;9428;50.950;6.912;2023-12-04T04:08:33;1.90;99.90
18597;DHT22;9428;50.950;6.912;2023-12-04T04:11:21;1.90;99.90
18597;DHT22;9428;50.950;6.912;2023-12-04T04:14:08;2.50;99.90
18597;DHT22;9428;50.950;6.912;2023-12-04T04:16:55;1.80;99.90
18597;DHT22;9428;50.950;6.912;2023-12-04T04:19:43;1.80;99.90
18597;DHT22;9428;50.950;6.912;2023-12-04T04:22:32;1.90;99.90
18597;DHT22;9428;50.950;6.912;2023-12-04T04:25:23;2.30;99.90
18597;DHT22;9428;50.950;6.912;2023-12-04T04:28:10;1.80;99.90
18597;DHT22;9428;50.950;6.912;2023-12-04T04:30:58;1.90;99.90
18597;DHT22;9428;50.950;6.912;2023-12-04T04:33:45;1.90;99.90
18597;DHT22;9428;50.950;6.912;2023-12-04T04:36:32;1.90;99.90
18597;DHT22;9428;50.950;6.912;2023-12-04T04:39:22;1.80;99.90
18597;DHT22;9428;50.950;6.912;2023-12-04T04:42:10;1.80;99.90
18597;DHT22;9428;50.950;6.912;2023-12-04T04:44:57;1.80;99.90
18597;DHT22;9428;50.950;6.912;2023-12-04T04:47:54;1.80;99.90
18597;DHT22;9428;50.950;6.912;2023-12-04T04:50:41;1.80;99.90
18597;DHT22;9428;50.950;6.912;2023-12-04T04:53:28;1.80;99.90
18597;DHT22;9428;50.950;6.912;2023-12-04T04:56:17;2.20;99.90
18597;DHT22;9428;50.950;6.912;2023-12-04T04:59:05;1.80;99.90
18597;DHT22;9428;50.950;6.912;2023-12-04T05:01:55;1.80;99.90
18597;DHT22;9428;50.950;6.912;2023-12-04T05:04:44;1.80;99.90
18597;DHT22;9428;50.950;6.912;2023-12-04T05:07:31;1.90;99.90
18597;DHT22;9428;50.950;6.912;2023-12-04T05:10:19;2.80;99.90
18597;DHT22;9428;50.950;6.912;2023-12-04T05:13:07;1.80;99.90
18597;DHT22;9428;50.950;6.912;2023-12-04T05:15:57;1.80;99.90
18597;DHT22;9428;50.950;6.912;2023-12-04T05:18:44;1.80;99.90
18597;DHT22;9428;50.950;6.912;2023-12-04T05:21:32;1.80;99.90
18597;DHT22;9428;50.950;6.912;2023-12-04T05:24:24;1.70;99.90
18597;DHT22;9428;50.950;6.912;2023-12-04T05:27:12;1.80;99.90
18597;DHT22;9428;50.950;6.912;2023-12-04T05:30:01;1.70;99.90
18597;DHT22;9428;50.950;6.912;2023-12-04T05:32:48;1.70;99.90
18597;DHT22;9428;50.950;6.912;2023-12-04T05:35:35;1.70;99.90
18597;DHT22;9428;50.950;6.912;2023-12-04T05:38:23;1.70;99.90
18597;DHT22;9428;50.950;6.912;2023-12-04T05:41:10;1.70;99.90
18597;DHT22;9428;50.950;6.912;2023-12-04T05:43:57;1.80;99.90
18597;DHT22;9428;50.950;6.912;2023-12-04T05:46:46;1.80;99.90
18597;DHT22;9428;50.950;6.912;2023-12-04T05:49:33;1.80;99.90
18597;DHT22;9428;50.950;6.912;2023-12-04T05:52:21;1.90;99.90
18597;DHT22;9428;50.950;6.912;2023-12-04T05:55:09;1.80;99.90
18597;DHT22;9428;50.950;6.912;2023-12-04T05:57:56;1.80;99.90
18597;DHT22;9428;50.950;6.912;2023-12-04T06:00:44;1.70;99.90
18597;DHT22;9428;50.950;6.912;2023-12-04T06:03:32;1.80;99.90
18597;DHT22;9428;50.950;6.912;2023-12-04T06:06:20;1.80;99.90
18597;DHT22;9428;50.950;6.912;2023-12-04T06:09:07;1.80;99.90
18597;DHT22;9428;50.950;6.912;2023-12-04T06:11:54;1.90;99.90
18597;DHT22;9428;50.950;6.912;2023-12-04T06:14:41;1.80;99.90
18597;DHT22;9428;50.950;6.912;2023-12-04T06:17:29;1.80;99.90
18597;DHT22;9428;50.950;6.912;2023-12-04T06:20:17;2.30;99.90
18597;DHT22;9428;50.950;6.912;2023-12-04T06:23:05;1.90;99.90
18597;DHT22;9428;50.950;6.912;2023-12-04T06:25:53;1.90;99.90
18597;DHT22;9428;50.950;6.912;2023-12-04T06:28:41;1.90;99.90
18597;DHT22;9428;50.950;6.912;2023-12-04T06:31:28;1.80;99.90
18597;DHT22;9428;50.950;6.912;2023-12-04T06:34:16;1.80;99.90
18597;DHT22;9428;50.950;6.912;2023-12-04T06:37:09;1.80;99.90
18597;DHT22;9428;50.950;6.912;2023-12-04T06:40:00;1.80;99.90
18597;DHT22;9428;50.950;6.912;2023-12-04T06:42:48;1.80;99.90
18597;DHT22;9428;50.950;6.912;2023-12-04T06:45:36;1.80;99.90
18597;DHT22;9428;50.950;6.912;2023-12-04T06:48:24;1.80;99.90
18597;DHT22;9428;50.950;6.912;2023-12-04T06:51:11;1.80;99.90
18597;DHT22;9428;50.950;6.912;2023-12-04T06:54:00;1.80;99.90
18597;DHT22;9428;50.950;6.912;2023-12-04T06:56:48;1.70;99.90
18597;DHT22;9428;50.950;6.912;2023-12-04T06:59:35;1.80;99.90
18597;DHT22;9428;50.950;6.912;2023-12-04T07:02:22;1.80;99.90
18597;DHT22;9428;50.950;6.912;2023-12-04T07:05:10;1.80;99.90
18597;DHT22;9428;50.950;6.912;2023-12-04T07:07:57;1.80;99.90
18597;DHT22;9428;50.950;6.912;2023-12-04T07:10:46;1.80;99.90
18597;DHT22;9428;50.950;6.912;2023-12-04T07:13:33;1.80;99.90
18597;DHT22;9428;50.950;6.912;2023-12-04T07:16:21;1.80;99.90
18597;DHT22;9428;50.950;6.912;2023-12-04T07:19:08;1.80;99.90
18597;DHT22;9428;50.950;6.912;2023-12-04T07:21:56;1.80;99.90
18597;DHT22;9428;50.950;6.912;2023-12-04T07:24:43;1.80;99.90
18597;DHT22;9428;50.950;6.912;2023-12-04T07:27:32;1.80;99.90
18597;DHT22;9428;50.950;6.912;2023-12-04T07:30:19;1.80;99.90
18597;DHT22;9428;50.950;6.912;2023-12-04T07:33:07;1.90;99.90
18597;DHT22;9428;50.950;6.912;2023-12-04T07:35:55;1.80;99.90
18597;DHT22;9428;50.950;6.912;2023-12-04T07:38:42;1.90;99.90
18597;DHT22;9428;50.950;6.912;2023-12-04T07:41:29;1.80;99.90
18597;DHT22;9428;50.950;6.912;2023-12-04T07:44:18;1.90;99.90
18597;DHT22;9428;50.950;6.912;2023-12-04T07:47:05;2.00;99.90
18597;DHT22;9428;50.950;6.912;2023-12-04T07:49:52;2.00;99.90
18597;DHT22;9428;50.950;6.912;2023-12-04T07:52:40;2.40;99.90
18597;DHT22;9428;50.950;6.912;2023-12-04T07:55:27;1.80;99.90
18597;DHT22;9428;50.950;6.912;2023-12-04T07:58:15;1.90;99.90
18597;DHT22;9428;50.950;6.912;2023-12-04T08:01:04;2.00;99.90
18597;DHT22;9428;50.950;6.912;2023-12-04T08:03:52;1.90;99.90
18597;DHT22;9428;50.950;6.912;2023-12-04T08:06:39;1.80;99.90
18597;DHT22;9428;50.950;6.912;2023-12-04T08:09:27;1.90;99.90
18597;DHT22;9428;50.950;6.912;2023-12-04T08:12:14;1.90;99.90
18597;DHT22;9428;50.950;6.912;2023-12-04T08:15:02;1.80;99.90
18597;DHT22;9428;50.950;6.912;2023-12-04T08:17:51;1.90;99.90
18597;DHT22;9428;50.950;6.912;2023-12-04T08:20:38;1.90;99.90
18597;DHT22;9428;50.950;6.912;2023-12-04T08:23:25;1.90;99.90
18597;DHT22;9428;50.950;6.912;2023-12-04T08:26:13;2.20;99.90
18597;DHT22;9428;50.950;6.912;2023-12-04T08:29:01;1.90;99.90
18597;DHT22;9428;50.950;6.912;2023-12-04T08:31:48;2.00;99.90
18597;DHT22;9428;50.950;6.912;2023-12-04T08:34:37;2.70;99.90
18597;DHT22;9428;50.950;6.912;2023-12-04T08:37:25;2.00;99.90
18597;DHT22;9428;50.950;6.912;2023-12-04T08:40:12;2.00;99.90
18597;DHT22;9428;50.950;6.912;2023-12-04T08:43:00;2.00;99.90
18597;DHT22;9428;50.950;6.912;2023-12-04T08:45:47;2.10;99.90
18597;DHT22;9428;50.950;6.912;2023-12-04T08:48:35;2.00;99.90
18597;DHT22;9428;50.950;6.912;2023-12-04T08:51:23;2.80;99.90
18597;DHT22;9428;50.950;6.912;2023-12-04T08:54:10;1.90;99.90
18597;DHT22;9428;50.950;6.912;2023-12-04T08:56:58;2.00;99.90
18597;DHT22;9428;50.950;6.912;2023-12-04T08:59:45;2.10;99.90
18597;DHT22;9428;50.950;6.912;2023-12-04T09:02:32;2.10;99.90
18597;DHT22;9428;50.950;6.912;2023-12-04T09:05:20;2.10;99.90
18597;DHT22;9428;50.950;6.912;2023-12-04T09:08:10;2.10;99.90
18597;DHT22;9428;50.950;6.912;2023-12-04T09:10:57;2.10;99.90
18597;DHT22;9428;50.950;6.912;2023-12-04T09:13:44;2.10;99.90
18597;DHT22;9428;50.950;6.912;2023-12-04T09:16:32;2.10;99.90
18597;DHT22;9428;50.950;6.912;2023-12-04T09:19:19;2.40;99.90
18597;DHT22;9428;50.950;6.912;2023-12-04T09:22:06;2.00;99.90
18597;DHT22;9428;50.950;6.912;2023-12-04T09:24:55;2.00;99.90
18597;DHT22;9428;50.950;6.912;2023-12-04T09:27:43;2.10;99.90
18597;DHT22;9428;50.950;6.912;2023-12-04T09:30:31;2.10;99.90
18597;DHT22;9428;50.950;6.912;2023-12-04T09:33:18;2.10;99.90
18597;DHT22;9428;50.950;6.912;2023-12-04T09:36:06;2.20;99.90
18597;DHT22;9428;50.950;6.912;2023-12-04T09:38:54;2.20;99.90
18597;DHT22;9428;50.950;6.912;2023-12-04T09:41:43;2.30;99.90
18597;DHT22;9428;50.950;6.912;2023-12-04T09:44:32;2.10;99.90
18597;DHT22;9428;50.950;6.912;2023-12-04T09:47:22;2.90;99.90
18597;DHT22;9428;50.950;6.912;2023-12-04T09:50:10;2.20;99.90
18597;DHT22;9428;50.950;6.912;2023-12-04T09:53:00;2.30;99.90
18597;DHT22;9428;50.950;6.912;2023-12-04T09:55:49;2.30;99.90
18597;DHT22;9428;50.950;6.912;2023-12-04T09:58:39;2.30;99.90
18597;DHT22;9428;50.950;6.912;2023-12-04T10:01:28;2.40;99.90
18597;DHT22;9428;50.950;6.912;2023-12-04T10:04:16;2.30;99.90
18597;DHT22;9428;50.950;6.912;2023-12-04T10:07:04;2.20;99.90
18597;DHT22;9428;50.950;6.912;2023-12-04T10:09:51;2.20;99.90
18597;DHT22;9428;50.950;6.912;2023-12-04T10:12:38;2.40;99.90
18597;DHT22;9428;50.950;6.912;2023-12-04T10:15:27;2.40;99.90
18597;DHT22;9428;50.950;6.912;2023-12-04T10:18:27;2.40;99.90
18597;DHT22;9428;50.950;6.912;2023-12-04T10:21:16;2.50;99.90
18597;DHT22;9428;50.950;6.912;2023-12-04T10:24:04;2.30;99.90
18597;DHT22;9428;50.950;6.912;2023-12-04T10:26:51;2.40;99.90
18597;DHT22;9428;50.950;6.912;2023-12-04T10:29:43;2.40;99.90
18597;DHT22;9428;50.950;6.912;2023-12-04T10:32:36;2.50;99.90
18597;DHT22;9428;50.950;6.912;2023-12-04T10:35:23;2.50;99.90
18597;DHT22;9428;50.950;6.912;2023-12-04T10:38:12;2.50;99.90
18597;DHT22;9428;50.950;6.912;2023-12-04T10:41:12;2.50;99.90
18597;DHT22;9428;50.950;6.912;2023-12-04T10:43:59;2.60;99.90
18597;DHT22;9428;50.950;6.912;2023-12-04T10:46:47;2.60;99.90
18597;DHT22;9428;50.950;6.912;2023-12-04T10:49:36;2.70;99.90
18597;DHT22;9428;50.950;6.912;2023-12-04T10:52:23;2.50;99.90
18597;DHT22;9428;50.950;6.912;2023-12-04T10:55:11;2.60;99.90
18597;DHT22;9428;50.950;6.912;2023-12-04T10:58:01;2.30;99.90
18597;DHT22;9428;50.950;6.912;2023-12-04T11:00:50;2.50;99.90
18597;DHT22;9428;50.950;6.912;2023-12-04T11:03:44;2.50;99.90
18597;DHT22;9428;50.950;6.912;2023-12-04T11:06:35;2.40;99.90
18597;DHT22;9428;50.950;6.912;2023-12-04T11:09:26;2.50;99.90
18597;DHT22;9428;50.950;6.912;2023-12-04T11:12:18;3.30;99.90
18597;DHT22;9428;50.950;6.912;2023-12-04T11:15:07;2.70;99.90
18597;DHT22;9428;50.950;6.912;2023-12-04T11:17:59;2.60;99.90
18597;DHT22;9428;50.950;6.912;2023-12-04T11:20:51;2.60;99.90
18597;DHT22;9428;50.950;6.912;2023-12-04T11:23:40;2.60;99.90
18597;DHT22;9428;50.950;6.912;2023-12-04T11:26:28;2.60;99.90
18597;DHT22;9428;50.950;6.912;2023-12-04T11:29:17;2.90;99.90
18597;DHT22;9428;50.950;6.912;2023-12-04T11:32:06;2.60;99.90
18597;DHT22;9428;50.950;6.912;2023-12-04T11:34:55;2.60;99.90
18597;DHT22;9428;50.950;6.912;2023-12-04T11:37:43;2.40;99.90
18597;DHT22;9428;50.950;6.912;2023-12-04T11:40:32;2.90;99.90
18597;DHT22;9428;50.950;6.912;2023-12-04T11:43:24;2.60;99.90
18597;DHT22;9428;50.950;6.912;2023-12-04T11:46:12;2.50;99.90
18597;DHT22;9428;50.950;6.912;2023-12-04T11:49:26;2.40;99.90
18597;DHT22;9428;50.950;6.912;2023-12-04T11:52:15;2.40;99.90
18597;DHT22;9428;50.950;6.912;2023-12-04T11:55:04;2.30;99.90
18597;DHT22;9428;50.950;6.912;2023-12-04T11:57:55;2.30;99.90
18597;DHT22;9428;50.950;6.912;2023-12-04T12:00:43;3.10;99.90
18597;DHT22;9428;50.950;6.912;2023-12-04T12:03:32;2.30;99.90
18597;DHT22;9428;50.950;6.912;2023-12-04T12:06:20;2.20;99.90
18597;DHT22;9428;50.950;6.912;2023-12-04T12:09:08;2.20;99.90
18597;DHT22;9428;50.950;6.912;2023-12-04T12:11:56;2.20;99.90
18597;DHT22;9428;50.950;6.912;2023-12-04T12:14:45;2.20;99.90
18597;DHT22;9428;50.950;6.912;2023-12-04T12:17:33;2.30;99.90
18597;DHT22;9428;50.950;6.912;2023-12-04T12:20:20;2.30;99.90
18597;DHT22;9428;50.950;6.912;2023-12-04T12:23:10;2.30;99.90
18597;DHT22;9428;50.950;6.912;2023-12-04T12:25:58;2.20;99.90
18597;DHT22;9428;50.950;6.912;2023-12-04T12:28:45;2.30;99.90
18597;DHT22;9428;50.950;6.912;2023-12-04T12:31:34;2.30;99.90
18597;DHT22;9428;50.950;6.912;2023-12-04T12:34:21;2.30;99.90
18597;DHT22;9428;50.950;6.912;2023-12-04T12:37:09;2.40;99.90
18597;DHT22;9428;50.950;6.912;2023-12-04T12:39:57;2.30;99.90
18597;DHT22;9428;50.950;6.912;2023-12-04T12:42:45;2.30;99.90
18597;DHT22;9428;50.950;6.912;2023-12-04T12:45:39;1.90;99.90
18597;DHT22;9428;50.950;6.912;2023-12-04T12:48:28;2.30;99.90
18597;DHT22;9428;50.950;6.912;2023-12-04T12:51:15;2.40;99.90
18597;DHT22;9428;50.950;6.912;2023-12-04T12:54:02;2.90;99.90
18597;DHT22;9428;50.950;6.912;2023-12-04T12:56:50;2.30;99.90
18597;DHT22;9428;50.950;6.912;2023-12-04T12:59:37;2.40;99.90
18597;DHT22;9428;50.950;6.912;2023-12-04T13:02:25;2.90;99.90
18597;DHT22;9428;50.950;6.912;2023-12-04T13:05:14;2.40;99.90
18597;DHT22;9428;50.950;6.912;2023-12-04T13:08:03;2.40;99.90
18597;DHT22;9428;50.950;6.912;2023-12-04T13:10:51;2.40;99.90
18597;DHT22;9428;50.950;6.912;2023-12-04T13:13:39;2.50;99.90
18597;DHT22;9428;50.950;6.912;2023-12-04T13:16:26;2.50;99.90
18597;DHT22;9428;50.950;6.912;2023-12-04T13:19:13;2.50;99.90
18597;DHT22;9428;50.950;6.912;2023-12-04T13:22:04;2.50;99.90
18597;DHT22;9428;50.950;6.912;2023-12-04T13:24:52;2.50;99.90
18597;DHT22;9428;50.950;6.912;2023-12-04T13:27:39;2.50;99.90
18597;DHT22;9428;50.950;6.912;2023-12-04T13:30:27;2.40;99.90
18597;DHT22;9428;50.950;6.912;2023-12-04T13:33:14;2.50;99.90
18597;DHT22;9428;50.950;6.912;2023-12-04T13:36:01;2.60;99.90
18597;DHT22;9428;50.950;6.912;2023-12-04T13:38:51;2.50;99.90
18597;DHT22;9428;50.950;6.912;2023-12-04T13:41:39;2.50;99.90
18597;DHT22;9428;50.950;6.912;2023-12-04T13:44:58;2.40;99.90
18597;DHT22;9428;50.950;6.912;2023-12-04T13:47:45;2.50;99.90
18597;DHT22;9428;50.950;6.912;2023-12-04T13:50:33;2.50;99.90
18597;DHT22;9428;50.950;6.912;2023-12-04T13:53:20;2.50;99.90
18597;DHT22;9428;50.950;6.912;2023-12-04T13:56:16;2.60;99.90
18597;DHT22;9428;50.950;6.912;2023-12-04T13:59:27;2.60;99.90
18597;DHT22;9428;50.950;6.912;2023-12-04T14:02:15;2.50;99.90
18597;DHT22;9428;50.950;6.912;2023-12-04T14:05:02;2.50;99.90
18597;DHT22;9428;50.950;6.912;2023-12-04T14:07:50;2.50;99.90
18597;DHT22;9428;50.950;6.912;2023-12-04T14:10:38;3.00;99.90
18597;DHT22;9428;50.950;6.912;2023-12-04T14:13:26;2.50;99.90
18597;DHT22;9428;50.950;6.912;2023-12-04T14:16:14;2.50;99.90
18597;DHT22;9428;50.950;6.912;2023-12-04T14:19:02;2.50;99.90
18597;DHT22;9428;50.950;6.912;2023-12-04T14:21:50;2.50;99.90
18597;DHT22;9428;50.950;6.912;2023-12-04T14:24:38;2.50;99.90
18597;DHT22;9428;50.950;6.912;2023-12-04T14:27:25;2.20;99.90
18597;DHT22;9428;50.950;6.912;2023-12-04T14:30:15;2.60;99.90
18597;DHT22;9428;50.950;6.912;2023-12-04T14:33:02;2.50;99.90
18597;DHT22;9428;50.950;6.912;2023-12-04T14:35:49;2.50;99.90
18597;DHT22;9428;50.950;6.912;2023-12-04T14:38:37;2.50;99.90
18597;DHT22;9428;50.950;6.912;2023-12-04T14:41:25;2.50;99.90
18597;DHT22;9428;50.950;6.912;2023-12-04T14:44:12;2.50;99.90
18597;DHT22;9428;50.950;6.912;2023-12-04T14:47:01;2.50;99.90
18597;DHT22;9428;50.950;6.912;2023-12-04T14:49:50;2.40;99.90
18597;DHT22;9428;50.950;6.912;2023-12-04T14:52:40;2.40;99.90
18597;DHT22;9428;50.950;6.912;2023-12-04T14:55:33;2.50;99.90
18597;DHT22;9428;50.950;6.912;2023-12-04T14:58:46;2.40;99.90
18597;DHT22;9428;50.950;6.912;2023-12-04T15:02:06;2.50;99.90
18597;DHT22;9428;50.950;6.912;2023-12-04T15:05:33;2.50;99.90
18597;DHT22;9428;50.950;6.912;2023-12-04T15:08:34;2.50;99.90
18597;DHT22;9428;50.950;6.912;2023-12-04T15:11:39;2.50;99.90
18597;DHT22;9428;50.950;6.912;2023-12-04T15:14:57;2.50;99.90
18597;DHT22;9428;50.950;6.912;2023-12-04T15:18:00;2.40;99.90
18597;DHT22;9428;50.950;6.912;2023-12-04T15:21:02;2.40;99.90
18597;DHT22;9428;50.950;6.912;2023-12-04T15:23:50;2.30;99.90
18597;DHT22;9428;50.950;6.912;2023-12-04T15:26:37;2.30;99.90
18597;DHT22;9428;50.950;6.912;2023-12-04T15:29:24;2.30;99.90
18597;DHT22;9428;50.950;6.912;2023-12-04T15:32:11;2.20;99.90
18597;DHT22;9428;50.950;6.912;2023-12-04T15:35:00;2.10;99.90
18597;DHT22;9428;50.950;6.912;2023-12-04T15:37:46;2.20;99.90
18597;DHT22;9428;50.950;6.912;2023-12-04T15:40:34;2.30;99.90
18597;DHT22;9428;50.950;6.912;2023-12-04T15:43:21;2.30;99.90
18597;DHT22;9428;50.950;6.912;2023-12-04T15:46:09;2.20;99.90
18597;DHT22;9428;50.950;6.912;2023-12-04T15:48:55;2.20;99.90
18597;DHT22;9428;50.950;6.912;2023-12-04T15:51:46;2.30;99.90
18597;DHT22;9428;50.950;6.912;2023-12-04T15:54:33;2.30;99.90
18597;DHT22;9428;50.950;6.912;2023-12-04T15:57:20;2.40;99.90
18597;DHT22;9428;50.950;6.912;2023-12-04T16:00:08;2.30;99.90
18597;DHT22;9428;50.950;6.912;2023-12-04T16:02:55;2.40;99.90
18597;DHT22;9428;50.950;6.912;2023-12-04T16:05:43;2.40;99.90
18597;DHT22;9428;50.950;6.912;2023-12-04T16:08:33;2.40;99.90
18597;DHT22;9428;50.950;6.912;2023-12-04T16:11:21;2.90;99.90
18597;DHT22;9428;50.950;6.912;2023-12-04T16:14:09;3.10;99.90
18597;DHT22;9428;50.950;6.912;2023-12-04T16:16:56;2.40;99.90
18597;DHT22;9428;50.950;6.912;2023-12-04T16:19:43;2.40;99.90
18597;DHT22;9428;50.950;6.912;2023-12-04T16:22:31;2.50;99.90
18597;DHT22;9428;50.950;6.912;2023-12-04T16:25:20;2.50;99.90
18597;DHT22;9428;50.950;6.912;2023-12-04T16:28:08;3.10;99.90
18597;DHT22;9428;50.950;6.912;2023-12-04T16:30:56;2.50;99.90
18597;DHT22;9428;50.950;6.912;2023-12-04T16:33:47;2.60;99.90
18597;DHT22;9428;50.950;6.912;2023-12-04T16:36:35;2.70;99.90
18597;DHT22;9428;50.950;6.912;2023-12-04T16:39:23;2.60;99.90
18597;DHT22;9428;50.950;6.912;2023-12-04T16:42:13;2.70;99.90
18597;DHT22;9428;50.950;6.912;2023-12-04T16:45:00;2.60;99.90
18597;DHT22;9428;50.950;6.912;2023-12-04T16:47:48;2.80;99.90
18597;DHT22;9428;50.950;6.912;2023-12-04T16:50:35;2.70;99.90
18597;DHT22;9428;50.950;6.912;2023-12-04T16:53:23;2.80;99.90
18597;DHT22;9428;50.950;6.912;2023-12-04T16:56:11;2.70;99.90
18597;DHT22;9428;50.950;6.912;2023-12-04T16:59:01;2.70;99.90
18597;DHT22;9428;50.950;6.912;2023-12-04T17:01:48;2.80;99.90
18597;DHT22;9428;50.950;6.912;2023-12-04T17:04:36;2.90;99.90
18597;DHT22;9428;50.950;6.912;2023-12-04T17:07:23;2.90;99.90
18597;DHT22;9428;50.950;6.912;2023-12-04T17:10:11;2.90;99.90
18597;DHT22;9428;50.950;6.912;2023-12-04T17:12:59;2.80;99.90
18597;DHT22;9428;50.950;6.912;2023-12-04T17:15:48;2.80;99.90
18597;DHT22;9428;50.950;6.912;2023-12-04T17:18:35;2.80;99.90
18597;DHT22;9428;50.950;6.912;2023-12-04T17:21:22;2.80;99.90
18597;DHT22;9428;50.950;6.912;2023-12-04T17:24:10;2.80;99.90
18597;DHT22;9428;50.950;6.912;2023-12-04T17:26:57;2.70;99.90
18597;DHT22;9428;50.950;6.912;2023-12-04T17:29:45;2.70;99.90
18597;DHT22;9428;50.950;6.912;2023-12-04T17:32:34;2.80;99.90
18597;DHT22;9428;50.950;6.912;2023-12-04T17:35:21;2.70;99.90
18597;DHT22;9428;50.950;6.912;2023-12-04T17:38:08;2.70;99.90
18597;DHT22;9428;50.950;6.912;2023-12-04T17:40:56;2.80;99.90
18597;DHT22;9428;50.950;6.912;2023-12-04T17:43:45;3.30;99.90
18597;DHT22;9428;50.950;6.912;2023-12-04T17:46:33;2.40;99.90
18597;DHT22;9428;50.950;6.912;2023-12-04T17:49:21;2.80;99.90
18597;DHT22;9428;50.950;6.912;2023-12-04T17:52:09;2.80;99.90
18597;DHT22;9428;50.950;6.912;2023-12-04T17:54:57;2.80;99.90
18597;DHT22;9428;50.950;6.912;2023-12-04T17:57:44;2.80;99.90
18597;DHT22;9428;50.950;6.912;2023-12-04T18:00:32;2.70;99.90
18597;DHT22;9428;50.950;6.912;2023-12-04T18:03:20;2.70;99.90
18597;DHT22;9428;50.950;6.912;2023-12-04T18:06:09;3.50;99.90
18597;DHT22;9428;50.950;6.912;2023-12-04T18:08:58;2.80;99.90
18597;DHT22;9428;50.950;6.912;2023-12-04T18:11:45;2.70;99.90
18597;DHT22;9428;50.950;6.912;2023-12-04T18:14:32;2.70;99.90
18597;DHT22;9428;50.950;6.912;2023-12-04T18:17:20;2.70;99.90
18597;DHT22;9428;50.950;6.912;2023-12-04T18:20:08;2.70;99.90
18597;DHT22;9428;50.950;6.912;2023-12-04T18:22:57;2.70;99.90